Time;durP1;ratioP1;P1;durP2;ratioP2;P2;SDS_P1;SDS_P2;PMS_P1;PMS_P2;Temp;Humidity;BMP_temperature;BMP_pressure;BME280_temperature;BME280_humidity;BME280_pressure;Samples;Min_cycle;Max_cycle;Signal;HPM_P1;HPM_P2
2022/07/12 00:03:29;;;;;;;0.80;0.52;;;17.10;99.90;;;;;;20878674;28;20044;-79
2022/07/12 00:13:31;;;;;;;0.88;0.30;;;17.00;99.90;;;;;;20878047;28;20063;-79
2022/07/12 00:23:32;;;;;;;0.75;0.28;;;16.90;99.90;;;;;;20888552;28;20064;-79
2022/07/12 00:33:33;;;;;;;0.57;0.28;;;16.80;99.90;;;;;;20883170;28;20156;-79
2022/07/12 00:43:34;;;;;;;1.00;0.40;;;16.80;99.90;;;;;;20872468;28;20049;-79
2022/07/12 00:53:36;;;;;;;1.70;1.02;;;16.60;99.90;;;;;;20868390;28;20040;-78
2022/07/12 01:03:37;;;;;;;0.73;0.22;;;16.50;99.90;;;;;;20889655;28;20102;-79
2022/07/12 01:13:39;;;;;;;0.55;0.30;;;16.40;99.90;;;;;;20866805;28;20063;-79
2022/07/12 01:23:41;;;;;;;1.33;0.45;;;16.30;99.90;;;;;;20900632;28;20037;-79
2022/07/12 01:33:42;;;;;;;1.23;0.50;;;16.20;99.90;;;;;;20883983;28;20089;-79
2022/07/12 01:43:44;;;;;;;1.05;0.60;;;16.30;99.90;;;;;;20900903;28;20045;-79
2022/07/12 01:53:45;;;;;;;0.90;0.40;;;16.10;99.90;;;;;;20883712;28;20454;-79
2022/07/12 02:03:46;;;;;;;0.98;0.50;;;16.00;99.90;;;;;;20887947;28;20400;-79
2022/07/12 02:13:47;;;;;;;0.73;0.30;;;16.00;99.90;;;;;;20889586;28;20519;-79
2022/07/12 02:23:48;;;;;;;1.05;0.30;;;16.00;99.90;;;;;;20898842;28;20048;-79
2022/07/12 02:33:49;;;;;;;0.95;0.45;;;15.90;99.90;;;;;;20886513;28;20047;-79
2022/07/12 02:43:50;;;;;;;0.70;0.30;;;15.80;99.90;;;;;;20876156;28;20044;-79
2022/07/12 02:53:51;;;;;;;1.00;0.25;;;15.80;99.90;;;;;;20886800;28;20238;-79
2022/07/12 03:03:52;;;;;;;1.45;0.70;;;15.70;99.90;;;;;;20878548;28;20040;-80
2022/07/12 03:13:53;;;;;;;1.27;0.82;;;15.60;99.90;;;;;;20883839;28;20125;-79
2022/07/12 03:23:54;;;;;;;1.00;0.55;;;15.60;99.90;;;;;;20876455;28;20053;-79
2022/07/12 03:33:55;;;;;;;0.95;0.63;;;15.50;99.90;;;;;;20877421;28;20051;-79
2022/07/12 03:43:56;;;;;;;0.80;0.30;;;15.50;99.90;;;;;;20885921;28;20041;-79
2022/07/12 03:53:57;;;;;;;0.93;0.40;;;15.40;99.90;;;;;;20874679;28;20044;-79
2022/07/12 04:03:58;;;;;;;0.80;0.40;;;15.40;99.90;;;;;;20872951;28;20048;-79
2022/07/12 04:13:59;;;;;;;2.58;0.80;;;15.30;99.90;;;;;;20877663;28;20416;-79
2022/07/12 04:24:04;;;;;;;1.45;0.50;;;15.20;99.90;;;;;;20891962;28;20032;-79
2022/07/12 04:34:05;;;;;;;2.25;0.60;;;15.20;99.90;;;;;;20866319;28;20106;-79
2022/07/12 04:44:07;;;;;;;1.70;0.60;;;15.30;99.90;;;;;;20874263;28;20041;-79
2022/07/12 04:54:08;;;;;;;2.17;0.88;;;15.40;99.90;;;;;;20868983;28;21542;-79
2022/07/12 05:04:09;;;;;;;1.77;0.80;;;15.80;99.90;;;;;;20882821;28;20083;-79
2022/07/12 05:14:10;;;;;;;1.08;0.50;;;16.50;99.90;;;;;;20862025;28;20025;-79
2022/07/12 05:24:11;;;;;;;2.40;1.25;;;17.20;99.90;;;;;;20868921;28;20052;-79
2022/07/12 05:34:13;;;;;;;2.05;0.90;;;17.80;99.90;;;;;;20868480;28;20044;-78
2022/07/12 05:44:16;;;;;;;2.63;1.05;;;18.30;99.90;;;;;;20870335;28;20084;-78
2022/07/12 05:54:17;;;;;;;2.03;0.70;;;18.50;99.90;;;;;;20870425;28;20743;-78
2022/07/12 06:04:18;;;;;;;1.83;0.95;;;18.80;99.90;;;;;;20866446;28;20436;-78
2022/07/12 06:14:19;;;;;;;1.95;1.10;;;18.90;99.90;;;;;;20883193;28;20424;-78
2022/07/12 06:24:20;;;;;;;1.20;0.70;;;19.30;99.90;;;;;;20878147;28;20466;-78
2022/07/12 06:34:22;;;;;;;3.08;1.08;;;19.70;99.90;;;;;;20885839;28;20381;-78
2022/07/12 06:44:23;;;;;;;1.48;0.95;;;19.90;99.90;;;;;;20881675;28;20119;-78
2022/07/12 06:54:25;;;;;;;1.25;0.63;;;20.00;99.90;;;;;;20878342;28;20483;-78
2022/07/12 07:04:26;;;;;;;1.10;0.50;;;20.00;99.90;;;;;;20874705;28;20029;-78
2022/07/12 07:14:27;;;;;;;4.55;1.25;;;20.00;99.90;;;;;;20888774;28;20123;-78
2022/07/12 07:24:28;;;;;;;1.25;0.40;;;20.20;99.90;;;;;;20890050;28;20131;-78
2022/07/12 07:34:29;;;;;;;1.40;0.50;;;20.40;99.90;;;;;;20869756;28;20052;-77
2022/07/12 07:44:30;;;;;;;1.00;0.32;;;20.60;99.90;;;;;;20881158;28;20135;-77
2022/07/12 07:54:31;;;;;;;1.63;0.70;;;20.90;99.90;;;;;;20872217;28;20037;-77
2022/07/12 08:04:32;;;;;;;1.00;0.60;;;21.10;99.90;;;;;;20889955;28;20044;-77
2022/07/12 08:14:33;;;;;;;1.65;1.02;;;21.20;99.90;;;;;;20891754;28;20036;-77
2022/07/12 08:24:34;;;;;;;7.47;1.58;;;21.60;99.90;;;;;;20865640;28;20048;-77
2022/07/12 08:34:35;;;;;;;3.38;1.23;;;21.90;99.90;;;;;;20894964;28;20055;-76
2022/07/12 08:44:36;;;;;;;1.85;0.75;;;22.30;99.90;;;;;;20879549;28;20048;-76
2022/07/12 08:54:40;;;;;;;1.73;1.00;;;22.40;99.90;;;;;;20896160;28;20365;-77
2022/07/12 09:04:41;;;;;;;1.77;0.98;;;22.70;99.90;;;;;;20869248;28;20113;-77
2022/07/12 09:14:42;;;;;;;2.15;0.90;;;23.20;99.90;;;;;;20873897;28;20140;-77
2022/07/12 09:24:43;;;;;;;1.42;0.68;;;23.40;99.90;;;;;;20870578;28;20029;-81
2022/07/12 09:45:15;;;;;;;1.20;0.50;;;24.00;99.90;;;;;;20859961;28;20710;-80
2022/07/12 09:55:18;;;;;;;2.10;0.90;;;24.10;99.90;;;;;;20902952;28;20700;-78
2022/07/12 10:05:20;;;;;;;1.63;0.70;;;24.60;99.90;;;;;;20896640;28;20094;-78
2022/07/12 10:15:26;;;;;;;2.40;0.75;;;24.80;99.90;;;;;;20888758;28;20041;-77
2022/07/12 10:25:32;;;;;;;1.87;0.70;;;24.90;99.90;;;;;;20914214;28;20078;-77
2022/07/12 10:35:33;;;;;;;1.80;0.95;;;25.00;99.90;;;;;;20887874;28;20314;-77
2022/07/12 10:45:39;;;;;;;4.05;1.25;;;25.20;99.90;;;;;;20863230;28;20059;-77
2022/07/12 10:56:04;;;;;;;2.10;0.82;;;25.50;99.90;;;;;;20888366;28;20033;-77
2022/07/12 11:06:06;;;;;;;2.67;1.38;;;25.90;99.90;;;;;;20892177;28;20252;-76
2022/07/12 11:16:07;;;;;;;2.00;1.15;;;26.10;99.90;;;;;;20899765;28;20141;-76
2022/07/12 11:26:09;;;;;;;1.33;0.55;;;26.40;99.90;;;;;;20868176;28;20615;-76
2022/07/12 11:36:12;;;;;;;1.48;0.60;;;26.70;99.90;;;;;;20880794;28;20095;-76
2022/07/12 11:46:13;;;;;;;1.00;0.57;;;26.90;99.90;;;;;;20884907;28;20065;-77
2022/07/12 11:56:14;;;;;;;1.52;0.85;;;27.10;99.90;;;;;;20886432;28;20048;-77
2022/07/12 12:06:15;;;;;;;2.80;1.60;;;27.40;99.90;;;;;;20867425;28;20523;-76
2022/07/12 12:16:16;;;;;;;2.60;0.95;;;27.30;99.90;;;;;;20894075;28;20570;-77
2022/07/12 12:26:22;;;;;;;1.67;0.80;;;27.50;99.90;;;;;;20881482;28;20048;-76
2022/07/12 12:36:28;;;;;;;1.40;0.90;;;27.60;99.90;;;;;;20895409;28;20150;-76
2022/07/12 12:46:45;;;;;;;1.30;0.60;;;27.90;99.90;;;;;;20879630;28;20113;-77
2022/07/12 12:56:46;;;;;;;2.15;0.85;;;28.10;99.90;;;;;;20873126;28;20037;-77
2022/07/12 13:06:48;;;;;;;0.75;0.40;;;28.10;99.90;;;;;;20884615;28;20492;-77
2022/07/12 13:16:50;;;;;;;3.17;0.68;;;28.00;99.00;;;;;;20874171;28;20443;-76
2022/07/12 13:26:50;;;;;;;1.00;0.30;;;27.60;99.90;;;;;;20862866;28;20494;-77
2022/07/12 13:36:52;;;;;;;1.38;0.70;;;27.30;98.70;;;;;;20876143;28;20048;-77
2022/07/12 13:46:53;;;;;;;1.10;0.50;;;27.20;99.90;;;;;;20865034;28;20044;-77
2022/07/12 13:56:54;;;;;;;1.10;0.57;;;27.10;99.70;;;;;;20862318;28;20032;-76
2022/07/12 14:06:56;;;;;;;0.98;0.40;;;27.00;99.90;;;;;;20856048;28;20170;-77
2022/07/12 14:16:57;;;;;;;1.05;0.40;;;26.90;99.90;;;;;;20861539;28;20072;-77
2022/07/12 14:26:58;;;;;;;1.85;0.65;;;26.80;99.90;;;;;;20867751;28;20052;-77
2022/07/12 14:37:00;;;;;;;1.02;0.30;;;26.70;99.30;;;;;;20931366;28;20033;-77
2022/07/12 14:47:01;;;;;;;1.40;0.50;;;26.70;99.60;;;;;;20889488;28;20727;-77
2022/07/12 14:57:02;;;;;;;1.10;0.20;;;26.80;99.00;;;;;;20879071;28;20585;-78
2022/07/12 15:07:03;;;;;;;1.23;0.65;;;26.70;99.90;;;;;;20880690;28;20039;-77
2022/07/12 15:17:04;;;;;;;1.08;0.40;;;26.60;99.90;;;;;;20874942;28;20028;-77
2022/07/12 15:27:06;;;;;;;1.85;0.65;;;26.70;99.90;;;;;;20898257;28;20032;-77
2022/07/12 15:37:07;;;;;;;1.17;0.50;;;26.80;99.80;;;;;;20868409;28;20048;-77
2022/07/12 15:47:13;;;;;;;1.25;0.52;;;26.60;99.90;;;;;;20883487;28;20033;-77
2022/07/12 15:57:16;;;;;;;1.20;0.60;;;26.50;99.90;;;;;;20881992;28;20021;-77
2022/07/12 16:07:17;;;;;;;1.10;0.50;;;26.60;99.90;;;;;;20881461;28;20091;-77
2022/07/12 16:17:20;;;;;;;1.15;0.63;;;26.80;99.90;;;;;;20877159;28;20082;-79
2022/07/12 16:27:21;;;;;;;0.90;0.40;;;26.80;99.90;;;;;;20871079;28;20048;-81
2022/07/12 16:37:22;;;;;;;1.08;0.63;;;26.50;99.90;;;;;;20863170;28;20102;-77
2022/07/12 16:47:23;;;;;;;2.17;1.13;;;26.30;99.90;;;;;;20874956;28;20032;-79
2022/07/12 16:57:24;;;;;;;1.25;0.63;;;26.00;99.90;;;;;;20874414;28;20102;-78
2022/07/12 17:07:25;;;;;;;2.58;0.95;;;25.90;99.90;;;;;;20853249;28;20040;-78
2022/07/12 17:17:27;;;;;;;1.15;0.60;;;25.90;99.90;;;;;;20875085;28;20037;-78
2022/07/12 17:27:28;;;;;;;1.95;0.77;;;25.80;99.90;;;;;;20884261;28;20051;-79
2022/07/12 17:37:30;;;;;;;1.35;0.55;;;25.80;99.90;;;;;;20877016;28;20121;-78
2022/07/12 17:47:32;;;;;;;2.47;1.00;;;25.80;99.90;;;;;;20864240;28;20040;-78
2022/07/12 17:57:33;;;;;;;1.10;0.60;;;25.80;99.90;;;;;;20874877;28;20049;-78
2022/07/12 18:07:34;;;;;;;2.95;1.00;;;26.00;99.90;;;;;;20892596;28;20098;-78
2022/07/12 18:27:54;;;;;;;1.65;0.63;;;25.90;99.90;;;;;;20899550;28;20068;-79
2022/07/12 18:37:55;;;;;;;2.47;0.70;;;25.70;99.90;;;;;;20877086;28;20569;-79
2022/07/12 18:47:56;;;;;;;1.10;0.40;;;25.50;99.90;;;;;;20883447;28;20044;-79
2022/07/12 18:57:57;;;;;;;2.63;0.82;;;25.30;99.90;;;;;;20873977;28;20511;-78
2022/07/12 19:07:58;;;;;;;1.90;0.85;;;25.30;99.90;;;;;;20886790;28;20045;-78
2022/07/12 19:17:59;;;;;;;1.55;0.57;;;25.20;99.90;;;;;;20889776;28;20037;-79
2022/07/12 19:28:00;;;;;;;0.90;0.47;;;25.10;99.90;;;;;;20878365;28;20029;-79
2022/07/12 19:38:02;;;;;;;1.50;0.68;;;25.00;99.90;;;;;;20888797;28;20048;-78
2022/07/12 19:48:03;;;;;;;1.67;0.85;;;24.90;99.90;;;;;;20884101;28;20033;-78
2022/07/12 19:58:04;;;;;;;1.85;0.68;;;24.80;99.90;;;;;;20882481;28;20438;-78
2022/07/12 20:08:10;;;;;;;1.77;0.65;;;24.70;99.90;;;;;;20881104;28;20071;-78
2022/07/12 20:18:11;;;;;;;3.57;0.77;;;24.70;99.90;;;;;;20898861;28;20767;-78
2022/07/12 20:28:12;;;;;;;1.45;0.65;;;24.60;99.90;;;;;;20866332;28;20083;-78
2022/07/12 20:38:13;;;;;;;0.95;0.45;;;24.50;99.90;;;;;;20879270;28;20134;-78
2022/07/12 20:48:14;;;;;;;1.88;0.95;;;24.40;99.90;;;;;;20878917;28;20053;-78
2022/07/12 20:58:15;;;;;;;1.27;0.50;;;24.30;99.90;;;;;;20878722;28;20037;-78
2022/07/12 21:08:17;;;;;;;3.75;1.20;;;24.30;99.90;;;;;;20872247;28;20690;-78
2022/07/12 21:18:18;;;;;;;2.63;1.02;;;24.30;99.90;;;;;;20870888;28;20118;-79
2022/07/12 21:28:19;;;;;;;2.22;0.82;;;24.30;99.90;;;;;;20867597;28;20132;-79
2022/07/12 21:38:20;;;;;;;1.10;0.55;;;24.40;99.90;;;;;;20876435;28;20523;-79
2022/07/12 21:48:21;;;;;;;1.90;0.63;;;24.40;99.90;;;;;;20882754;28;20743;-79
2022/07/12 21:58:23;;;;;;;2.03;0.90;;;24.40;99.90;;;;;;20881455;28;20350;-79
2022/07/12 22:08:24;;;;;;;1.95;0.90;;;24.30;99.90;;;;;;20906965;28;20036;-79
2022/07/12 22:18:25;;;;;;;2.63;0.70;;;24.30;99.90;;;;;;20901431;28;20033;-79
2022/07/12 22:28:29;;;;;;;2.03;0.60;;;24.20;99.90;;;;;;20887577;28;20037;-79
2022/07/12 22:38:30;;;;;;;2.25;1.08;;;24.20;99.90;;;;;;20879723;28;20048;-79
2022/07/12 22:48:32;;;;;;;1.73;0.90;;;24.00;99.90;;;;;;20899345;28;20106;-78
2022/07/12 22:58:33;;;;;;;1.85;1.08;;;23.50;99.90;;;;;;20889348;28;20530;-78
2022/07/12 23:08:35;;;;;;;2.97;1.23;;;22.90;99.90;;;;;;20891437;28;20029;-78
2022/07/12 23:18:36;;;;;;;3.72;1.27;;;22.40;99.90;;;;;;20891790;28;20044;-78
2022/07/12 23:28:37;;;;;;;2.67;1.10;;;22.00;99.90;;;;;;20868128;28;20836;-78
2022/07/12 23:38:38;;;;;;;2.33;1.10;;;21.70;99.90;;;;;;20865681;28;20068;-78
2022/07/12 23:48:39;;;;;;;3.58;1.40;;;21.60;99.90;;;;;;20869587;28;20562;-78
2022/07/12 23:58:40;;;;;;;3.33;1.00;;;21.60;99.90;;;;;;20873016;28;20110;-78
